createdAt,value
2023-05-05T00:00:04.233Z,94987.00
2023-05-05T00:01:04.274Z,94989.00
2023-05-05T00:02:04.288Z,94985.00
2023-05-05T00:03:04.335Z,94985.00
2023-05-05T00:04:04.269Z,94985.00
2023-05-05T00:05:04.258Z,94983.00
2023-05-05T00:06:04.310Z,94983.00
2023-05-05T00:07:04.309Z,94985.00
2023-05-05T00:08:04.264Z,94985.00
2023-05-05T00:09:04.300Z,94983.00
2023-05-05T00:10:04.240Z,94985.00
2023-05-05T00:11:04.283Z,94987.00
2023-05-05T00:12:04.279Z,94985.00
2023-05-05T00:13:04.282Z,94987.00
2023-05-05T00:14:04.261Z,94987.00
2023-05-05T00:15:04.247Z,94989.00
2023-05-05T00:16:04.310Z,94987.00
2023-05-05T00:17:04.401Z,94989.00
2023-05-05T00:18:04.332Z,94983.00
2023-05-05T00:19:04.265Z,94987.00
2023-05-05T00:20:04.295Z,94985.00
2023-05-05T00:21:04.311Z,94985.00
2023-05-05T00:22:04.360Z,94985.00
2023-05-05T00:23:04.265Z,94983.00
2023-05-05T00:24:04.278Z,94987.00
2023-05-05T00:25:04.249Z,94985.00
2023-05-05T00:26:04.266Z,94987.00
2023-05-05T00:27:04.316Z,94987.00
2023-05-05T00:28:04.250Z,94987.00
2023-05-05T00:29:04.288Z,94985.00
2023-05-05T00:30:04.265Z,94985.00
2023-05-05T00:31:04.287Z,94987.00
2023-05-05T00:32:04.283Z,94985.00
2023-05-05T00:33:04.399Z,94985.00
2023-05-05T00:34:04.273Z,94989.00
2023-05-05T00:35:04.246Z,94991.00
2023-05-05T00:36:04.281Z,94991.00
2023-05-05T00:37:04.266Z,94987.00
2023-05-05T00:38:04.352Z,94989.00
2023-05-05T00:39:04.251Z,94989.00
2023-05-05T00:40:04.269Z,94989.00
2023-05-05T00:41:04.278Z,94991.00
2023-05-05T00:42:04.310Z,94993.00
2023-05-05T00:43:04.288Z,94993.00
2023-05-05T00:44:04.255Z,94995.00
2023-05-05T00:45:04.286Z,94995.00
2023-05-05T00:46:04.304Z,94995.00
2023-05-05T00:47:04.438Z,94995.00
2023-05-05T00:48:04.325Z,94997.00
2023-05-05T00:49:04.311Z,94997.00
2023-05-05T00:50:04.302Z,94997.00
2023-05-05T00:51:04.268Z,94999.00
2023-05-05T00:52:04.251Z,95001.00
2023-05-05T00:53:04.258Z,94997.00
2023-05-05T00:54:04.253Z,94999.00
2023-05-05T00:55:04.245Z,94997.00
2023-05-05T00:56:04.238Z,94995.00
2023-05-05T00:57:04.268Z,94997.00
2023-05-05T00:58:04.396Z,94993.00
2023-05-05T00:59:04.264Z,94993.00
2023-05-05T01:00:04.250Z,94995.00
2023-05-05T01:01:04.257Z,94993.00
2023-05-05T01:02:04.386Z,94995.00
2023-05-05T01:03:04.377Z,94993.00
2023-05-05T01:04:04.271Z,94991.00
2023-05-05T01:05:04.282Z,94993.00
2023-05-05T01:06:04.362Z,94993.00
2023-05-05T01:07:04.289Z,94987.00
2023-05-05T01:08:04.253Z,94987.00
2023-05-05T01:09:04.276Z,94987.00
2023-05-05T01:10:18.088Z,94991.00
2023-05-05T01:11:05.280Z,94989.00
2023-05-05T01:12:04.265Z,94991.00
2023-05-05T01:13:04.287Z,94991.00
2023-05-05T01:14:04.258Z,94991.00
2023-05-05T01:15:04.239Z,94989.00
2023-05-05T01:16:04.227Z,94987.00
2023-05-05T01:17:04.201Z,94987.00
2023-05-05T01:18:04.350Z,94985.00
2023-05-05T01:19:04.208Z,94991.00
2023-05-05T01:20:04.210Z,94987.00
2023-05-05T01:21:04.209Z,94987.00
2023-05-05T01:22:04.168Z,94989.00
2023-05-05T01:23:04.188Z,94991.00
2023-05-05T01:24:04.161Z,94991.00
2023-05-05T01:25:04.149Z,94991.00
2023-05-05T01:26:04.154Z,94987.00
2023-05-05T01:27:04.125Z,94991.00
2023-05-05T01:28:04.149Z,94991.00
2023-05-05T01:29:04.182Z,94989.00
2023-05-05T01:30:04.143Z,94991.00
2023-05-05T01:31:04.139Z,94995.00
2023-05-05T01:32:04.181Z,94993.00
2023-05-05T01:33:04.140Z,94995.00
2023-05-05T01:34:04.090Z,94997.00
2023-05-05T01:35:04.189Z,94993.00
2023-05-05T01:36:04.066Z,94993.00
2023-05-05T01:37:04.058Z,94993.00
2023-05-05T01:38:04.080Z,94995.00
2023-05-05T01:39:04.119Z,94997.00
2023-05-05T01:40:04.140Z,94993.00
2023-05-05T01:41:04.100Z,94995.00
2023-05-05T01:42:04.075Z,94995.00
2023-05-05T01:43:04.065Z,94995.00
2023-05-05T01:44:04.083Z,94995.00
2023-05-05T01:45:04.100Z,94995.00
2023-05-05T01:46:04.135Z,94995.00
2023-05-05T01:47:04.076Z,94997.00
2023-05-05T01:48:04.143Z,94995.00
2023-05-05T01:49:04.085Z,94999.00
2023-05-05T01:50:04.095Z,94997.00
2023-05-05T01:51:04.106Z,94999.00
2023-05-05T01:52:04.110Z,94997.00
2023-05-05T01:53:04.092Z,94999.00
2023-05-05T01:54:04.113Z,94997.00
2023-05-05T01:55:04.150Z,94997.00
2023-05-05T01:56:04.093Z,94995.00
2023-05-05T01:57:04.113Z,94999.00
2023-05-05T01:58:04.330Z,94995.00
2023-05-05T01:59:04.099Z,94997.00
2023-05-05T02:00:04.114Z,94997.00
2023-05-05T02:01:04.143Z,94999.00
2023-05-05T02:02:04.166Z,94999.00
2023-05-05T02:03:04.232Z,94999.00
2023-05-05T02:04:04.100Z,94997.00
2023-05-05T02:05:04.108Z,94999.00
2023-05-05T02:06:04.118Z,94997.00
2023-05-05T02:07:04.104Z,94999.00
2023-05-05T02:08:04.135Z,95003.00
2023-05-05T02:09:04.159Z,95003.00
2023-05-05T02:10:04.105Z,95003.00
2023-05-05T02:11:04.115Z,95005.00
2023-05-05T02:12:04.126Z,95009.00
2023-05-05T02:13:04.411Z,95007.00
2023-05-05T02:14:04.223Z,95009.00
2023-05-05T02:15:04.121Z,95007.00
2023-05-05T02:16:04.145Z,95007.00
2023-05-05T02:17:04.140Z,95009.00
2023-05-05T02:18:04.161Z,95013.00
2023-05-05T02:19:04.126Z,95015.00
2023-05-05T02:20:04.150Z,95015.00
2023-05-05T02:21:04.157Z,95019.00
2023-05-05T02:22:04.136Z,95021.00
2023-05-05T02:23:04.170Z,95021.00
2023-05-05T02:24:04.149Z,95021.00
2023-05-05T02:25:04.141Z,95021.00
2023-05-05T02:26:04.146Z,95019.00
2023-05-05T02:27:04.139Z,95019.00
2023-05-05T02:28:04.149Z,95021.00
2023-05-05T02:29:04.203Z,95023.00
2023-05-05T02:30:04.157Z,95023.00
2023-05-05T02:31:04.225Z,95021.00
2023-05-05T02:32:04.180Z,95023.00
2023-05-05T02:33:04.166Z,95025.00
2023-05-05T02:34:04.178Z,95019.00
2023-05-05T02:35:04.184Z,95021.00
2023-05-05T02:36:04.198Z,95019.00
2023-05-05T02:37:04.156Z,95017.00
2023-05-05T02:38:04.200Z,95017.00
2023-05-05T02:39:04.179Z,95021.00
2023-05-05T02:40:04.225Z,95019.00
2023-05-05T02:41:04.194Z,95019.00
2023-05-05T02:42:04.198Z,95019.00
2023-05-05T02:43:04.226Z,95021.00
2023-05-05T02:44:04.234Z,95021.00
2023-05-05T02:45:04.203Z,95021.00
2023-05-05T02:46:04.279Z,95021.00
2023-05-05T02:47:04.237Z,95021.00
2023-05-05T02:48:04.359Z,95019.00
2023-05-05T02:49:04.249Z,95017.00
2023-05-05T02:50:04.248Z,95017.00
2023-05-05T02:51:04.287Z,95019.00
2023-05-05T02:52:04.249Z,95019.00
2023-05-05T02:53:04.283Z,95017.00
2023-05-05T02:54:04.328Z,95019.00
2023-05-05T02:55:04.289Z,95015.00
2023-05-05T02:56:04.290Z,95015.00
2023-05-05T02:57:04.294Z,95013.00
2023-05-05T02:58:04.376Z,95015.00
2023-05-05T02:59:04.336Z,95017.00
2023-05-05T03:00:04.376Z,95019.00
2023-05-05T03:01:04.402Z,95017.00
2023-05-05T03:02:04.417Z,95019.00
2023-05-05T03:03:04.443Z,95021.00
2023-05-05T03:04:04.407Z,95017.00
2023-05-05T03:05:04.426Z,95021.00
2023-05-05T03:06:04.444Z,95019.00
2023-05-05T03:07:04.454Z,95019.00
2023-05-05T03:08:04.461Z,95025.00
2023-05-05T03:09:04.478Z,95023.00
2023-05-05T03:10:04.504Z,95025.00
2023-05-05T03:11:04.515Z,95025.00
2023-05-05T03:12:04.491Z,95025.00
2023-05-05T03:13:04.529Z,95025.00
2023-05-05T03:14:04.492Z,95023.00
2023-05-05T03:15:04.534Z,95023.00
2023-05-05T03:16:04.571Z,95025.00
2023-05-05T03:17:04.507Z,95023.00
2023-05-05T03:18:04.569Z,95026.00
2023-05-05T03:19:04.545Z,95026.00
2023-05-05T03:20:04.558Z,95026.00
2023-05-05T03:21:04.567Z,95028.00
2023-05-05T03:22:04.537Z,95026.00
2023-05-05T03:23:04.566Z,95026.00
2023-05-05T03:24:04.540Z,95028.00
2023-05-05T03:25:04.544Z,95030.00
2023-05-05T03:26:04.561Z,95030.00
2023-05-05T03:27:04.568Z,95032.00
2023-05-05T03:28:04.590Z,95032.00
2023-05-05T03:29:04.591Z,95030.00
2023-05-05T03:30:04.652Z,95028.00
2023-05-05T03:31:04.579Z,95026.00
2023-05-05T03:32:04.670Z,95025.00
2023-05-05T03:33:04.923Z,95025.00
2023-05-05T03:34:04.603Z,95028.00
2023-05-05T03:35:04.648Z,95025.00
2023-05-05T03:36:04.628Z,95023.00
2023-05-05T03:37:04.637Z,95021.00
2023-05-05T03:38:04.664Z,95021.00
2023-05-05T03:39:04.621Z,95021.00
2023-05-05T03:40:04.658Z,95023.00
2023-05-05T03:41:04.661Z,95021.00
2023-05-05T03:42:04.689Z,95023.00
2023-05-05T03:43:04.669Z,95023.00
2023-05-05T03:44:04.661Z,95025.00
2023-05-05T03:45:04.658Z,95021.00
2023-05-05T03:46:04.727Z,95023.00
2023-05-05T03:47:04.675Z,95023.00
2023-05-05T03:48:04.824Z,95023.00
2023-05-05T03:49:04.660Z,95023.00
2023-05-05T03:50:04.700Z,95023.00
2023-05-05T03:51:04.691Z,95023.00
2023-05-05T03:52:04.668Z,95021.00
2023-05-05T03:53:04.680Z,95021.00
2023-05-05T03:54:04.690Z,95019.00
2023-05-05T03:55:04.718Z,95019.00
2023-05-05T03:56:04.741Z,95019.00
2023-05-05T03:57:04.726Z,95019.00
2023-05-05T03:58:04.725Z,95019.00
2023-05-05T03:59:04.755Z,95021.00
2023-05-05T04:00:04.785Z,95019.00
2023-05-05T04:01:04.752Z,95021.00
2023-05-05T04:02:04.859Z,95021.00
2023-05-05T04:03:04.971Z,95019.00
2023-05-05T04:04:04.813Z,95019.00
2023-05-05T04:05:04.794Z,95019.00
2023-05-05T04:06:04.778Z,95019.00
2023-05-05T04:07:04.762Z,95017.00
2023-05-05T04:08:04.810Z,95019.00
2023-05-05T04:09:04.774Z,95019.00
2023-05-05T04:10:04.806Z,95019.00
2023-05-05T04:11:04.820Z,95021.00
2023-05-05T04:12:04.931Z,95017.00
2023-05-05T04:13:04.914Z,95015.00
2023-05-05T04:14:04.827Z,95017.00
2023-05-05T04:15:04.835Z,95017.00
2023-05-05T04:16:04.869Z,95019.00
2023-05-05T04:17:04.843Z,95017.00
2023-05-05T04:18:04.918Z,95017.00
2023-05-05T04:19:04.898Z,95015.00
2023-05-05T04:20:04.880Z,95015.00
2023-05-05T04:21:04.903Z,95015.00
2023-05-05T04:22:04.947Z,95019.00
2023-05-05T04:23:04.947Z,95021.00
2023-05-05T04:24:04.955Z,95017.00
2023-05-05T04:25:05.030Z,95019.00
2023-05-05T04:26:04.991Z,95017.00
2023-05-05T04:27:04.973Z,95019.00
2023-05-05T04:28:05.397Z,95019.00
2023-05-05T04:29:05.054Z,95019.00
2023-05-05T04:30:05.147Z,95021.00
2023-05-05T04:31:05.189Z,95025.00
2023-05-05T04:32:05.053Z,95026.00
2023-05-05T04:33:05.090Z,95026.00
2023-05-05T04:34:05.123Z,95030.00
2023-05-05T04:35:05.103Z,95030.00
2023-05-05T04:36:05.097Z,95032.00
2023-05-05T04:37:05.102Z,95032.00
2023-05-05T04:38:05.135Z,95028.00
2023-05-05T04:39:05.159Z,95032.00
2023-05-05T04:40:05.239Z,95030.00
2023-05-05T04:41:05.243Z,95030.00
2023-05-05T04:42:05.210Z,95030.00
2023-05-05T04:43:05.225Z,95034.00
2023-05-05T04:44:05.202Z,95032.00
2023-05-05T04:45:05.207Z,95034.00
2023-05-05T04:46:05.403Z,95038.00
2023-05-05T04:47:05.241Z,95036.00
2023-05-05T04:48:05.280Z,95036.00
2023-05-05T04:49:05.232Z,95038.00
2023-05-05T04:50:05.298Z,95038.00
2023-05-05T04:51:05.339Z,95038.00
2023-05-05T04:52:05.286Z,95040.00
2023-05-05T04:53:05.289Z,95040.00
2023-05-05T04:54:05.305Z,95040.00
2023-05-05T04:55:05.284Z,95040.00
2023-05-05T04:56:05.354Z,95044.00
2023-05-05T04:57:05.324Z,95046.00
2023-05-05T04:58:05.356Z,95050.00
2023-05-05T04:59:05.384Z,95050.00
2023-05-05T05:00:05.613Z,95048.00
2023-05-05T05:01:05.403Z,95050.00
2023-05-05T05:02:05.473Z,95050.00
2023-05-05T05:03:05.586Z,95050.00
2023-05-05T05:04:05.510Z,95048.00
2023-05-05T05:05:05.470Z,95050.00
2023-05-05T05:06:05.485Z,95052.00
2023-05-05T05:07:05.487Z,95050.00
2023-05-05T05:08:05.514Z,95052.00
2023-05-05T05:09:05.512Z,95052.00
2023-05-05T05:10:05.624Z,95056.00
2023-05-05T05:11:05.608Z,95052.00
2023-05-05T05:12:05.574Z,95056.00
2023-05-05T05:13:05.659Z,95052.00
2023-05-05T05:14:05.588Z,95054.00
2023-05-05T05:15:05.623Z,95052.00
2023-05-05T05:16:05.688Z,95054.00
2023-05-05T05:17:05.625Z,95052.00
2023-05-05T05:18:05.918Z,95056.00
2023-05-05T05:19:05.683Z,95054.00
2023-05-05T05:20:05.710Z,95056.00
2023-05-05T05:21:05.769Z,95056.00
2023-05-05T05:22:05.744Z,95054.00
2023-05-05T05:23:05.841Z,95052.00
2023-05-05T05:24:05.816Z,95054.00
2023-05-05T05:25:05.808Z,95054.00
2023-05-05T05:26:05.817Z,95056.00
2023-05-05T05:27:07.328Z,95056.00
2023-05-05T05:28:10.517Z,95056.00
2023-05-05T05:29:06.794Z,95058.00
2023-05-05T05:30:05.965Z,95056.00
2023-05-05T05:31:05.827Z,95058.00
2023-05-05T05:32:05.829Z,95060.00
2023-05-05T05:33:05.840Z,95058.00
2023-05-05T05:34:05.798Z,95058.00
2023-05-05T05:35:05.755Z,95058.00
2023-05-05T05:36:05.780Z,95052.00
2023-05-05T05:37:05.723Z,95056.00
2023-05-05T05:38:05.723Z,95052.00
2023-05-05T05:39:05.740Z,95058.00
2023-05-05T05:40:05.777Z,95058.00
2023-05-05T05:41:05.779Z,95056.00
2023-05-05T05:42:05.707Z,95054.00
2023-05-05T05:43:05.877Z,95054.00
2023-05-05T05:44:05.678Z,95052.00
2023-05-05T05:45:05.817Z,95052.00
2023-05-05T05:46:08.309Z,95052.00
2023-05-05T05:47:05.901Z,95050.00
2023-05-05T05:48:05.710Z,95044.00
2023-05-05T05:49:05.660Z,95046.00
2023-05-05T05:50:05.805Z,95048.00
2023-05-05T05:51:05.785Z,95050.00
2023-05-05T05:52:05.635Z,95050.00
2023-05-05T05:53:05.665Z,95050.00
2023-05-05T05:54:05.919Z,95050.00
2023-05-05T05:55:05.734Z,95046.00
2023-05-05T05:56:05.650Z,95048.00
2023-05-05T05:57:05.621Z,95044.00
2023-05-05T05:58:05.594Z,95048.00
2023-05-05T05:59:05.590Z,95046.00
2023-05-05T06:00:05.750Z,95050.00
2023-05-05T06:01:05.663Z,95052.00
2023-05-05T06:02:05.646Z,95050.00
2023-05-05T06:03:05.778Z,95050.00
2023-05-05T06:04:05.577Z,95050.00
2023-05-05T06:05:05.542Z,95050.00
2023-05-05T06:06:05.530Z,95050.00
2023-05-05T06:07:05.967Z,95052.00
2023-05-05T06:08:05.517Z,95050.00
2023-05-05T06:09:05.926Z,95052.00
2023-05-05T06:10:19.011Z,95054.00
2023-05-05T06:11:06.507Z,95054.00
2023-05-05T06:12:05.480Z,95052.00
2023-05-05T06:13:05.571Z,95054.00
2023-05-05T06:14:05.485Z,95054.00
2023-05-05T06:15:05.475Z,95058.00
2023-05-05T06:16:05.535Z,95054.00
2023-05-05T06:17:05.459Z,95056.00
2023-05-05T06:18:05.510Z,95052.00
2023-05-05T06:19:05.486Z,95048.00
2023-05-05T06:20:05.471Z,95052.00
2023-05-05T06:21:05.433Z,95048.00
2023-05-05T06:22:05.427Z,95048.00
2023-05-05T06:23:05.473Z,95050.00
2023-05-05T06:24:05.411Z,95044.00
2023-05-05T06:25:05.934Z,95050.00
2023-05-05T06:26:05.445Z,95048.00
2023-05-05T06:27:05.451Z,95046.00
2023-05-05T06:28:05.472Z,95046.00
2023-05-05T06:29:05.976Z,95044.00
2023-05-05T06:30:05.598Z,95040.00
2023-05-05T06:31:05.534Z,95042.00
2023-05-05T06:32:05.631Z,95040.00
2023-05-05T06:33:05.705Z,95038.00
2023-05-05T06:34:05.661Z,95034.00
2023-05-05T06:35:05.649Z,95034.00
2023-05-05T06:36:05.783Z,95032.00
2023-05-05T06:37:05.846Z,95032.00
2023-05-05T06:38:05.786Z,95034.00
2023-05-05T06:39:05.944Z,95034.00
2023-05-05T06:40:06.043Z,95038.00
2023-05-05T06:41:05.948Z,95036.00
2023-05-05T06:42:05.992Z,95034.00
2023-05-05T06:43:05.967Z,95036.00
2023-05-05T06:44:06.079Z,95032.00
2023-05-05T06:45:06.072Z,95036.00
2023-05-05T06:46:06.114Z,95028.00
2023-05-05T06:47:06.343Z,95028.00
2023-05-05T06:48:06.344Z,95026.00
2023-05-05T06:49:06.249Z,95026.00
2023-05-05T06:50:06.551Z,95025.00
2023-05-05T06:51:06.304Z,95025.00
2023-05-05T06:52:06.335Z,95023.00
2023-05-05T06:53:06.372Z,95023.00
2023-05-05T06:54:06.488Z,95025.00
2023-05-05T06:55:06.960Z,95023.00
2023-05-05T06:56:06.492Z,95025.00
2023-05-05T06:57:06.545Z,95025.00
2023-05-05T06:58:06.560Z,95021.00
2023-05-05T06:59:06.637Z,95021.00
2023-05-05T07:00:07.030Z,95021.00
2023-05-05T07:01:06.760Z,95023.00
2023-05-05T07:02:06.718Z,95023.00
2023-05-05T07:03:06.752Z,95019.00
2023-05-05T07:04:07.135Z,95021.00
2023-05-05T07:05:06.796Z,95017.00
2023-05-05T07:06:06.820Z,95013.00
2023-05-05T07:07:06.867Z,95015.00
2023-05-05T07:08:07.011Z,95013.00
2023-05-05T07:09:06.958Z,95015.00
2023-05-05T07:10:07.371Z,95011.00
2023-05-05T07:11:07.037Z,95011.00
2023-05-05T07:12:07.089Z,95009.00
2023-05-05T07:13:07.143Z,95009.00
2023-05-05T07:14:07.536Z,95011.00
2023-05-05T07:15:19.396Z,95013.00
2023-05-05T07:16:08.238Z,95013.00
2023-05-05T07:17:07.192Z,95013.00
2023-05-05T07:18:07.209Z,95011.00
2023-05-05T07:19:07.556Z,95013.00
2023-05-05T07:20:07.297Z,95007.00
2023-05-05T07:21:07.151Z,95009.00
2023-05-05T07:22:07.176Z,95009.00
2023-05-05T07:23:07.247Z,95005.00
2023-05-05T07:24:07.140Z,95007.00
2023-05-05T07:25:07.124Z,95001.00
2023-05-05T07:26:07.211Z,94999.00
2023-05-05T07:27:07.219Z,94997.00
2023-05-05T07:28:07.176Z,94997.00
2023-05-05T07:29:07.966Z,94997.00
2023-05-05T07:30:12.374Z,94995.00
2023-05-05T07:31:08.429Z,94991.00
2023-05-05T07:32:07.323Z,94989.00
2023-05-05T07:33:07.295Z,94991.00
2023-05-05T07:34:07.551Z,94987.00
2023-05-05T07:35:07.350Z,94987.00
2023-05-05T07:36:07.377Z,94985.00
2023-05-05T07:37:07.268Z,94985.00
2023-05-05T07:38:08.658Z,94985.00
2023-05-05T07:39:07.331Z,94985.00
2023-05-05T07:40:07.531Z,94983.00
2023-05-05T07:41:07.369Z,94983.00
2023-05-05T07:42:07.552Z,94979.00
2023-05-05T07:43:07.528Z,94978.00
2023-05-05T07:44:07.626Z,94974.00
2023-05-05T07:45:07.597Z,94972.00
2023-05-05T07:46:07.677Z,94970.00
2023-05-05T07:47:07.736Z,94970.00
2023-05-05T07:48:07.831Z,94970.00
2023-05-05T07:49:07.824Z,94970.00
2023-05-05T07:50:08.008Z,94964.00
2023-05-05T07:51:08.023Z,94966.00
2023-05-05T07:52:08.068Z,94964.00
2023-05-05T07:53:14.559Z,94964.00
2023-05-05T07:54:09.089Z,94962.00
2023-05-05T07:55:08.099Z,94966.00
2023-05-05T07:56:08.042Z,94964.00
2023-05-05T07:57:08.073Z,94962.00
2023-05-05T07:58:08.098Z,94960.00
2023-05-05T07:59:08.022Z,94960.00
2023-05-05T08:00:08.236Z,94958.00
2023-05-05T08:01:08.013Z,94960.00
2023-05-05T08:02:08.041Z,94958.00
2023-05-05T08:03:11.287Z,94956.00
2023-05-05T08:04:09.075Z,94960.00
2023-05-05T08:05:08.405Z,94958.00
2023-05-05T08:06:08.033Z,94956.00
2023-05-05T08:07:08.052Z,94956.00
2023-05-05T08:08:08.036Z,94958.00
2023-05-05T08:09:08.049Z,94958.00
2023-05-05T08:10:08.982Z,94956.00
2023-05-05T08:11:08.009Z,94952.00
2023-05-05T08:12:08.032Z,94954.00
2023-05-05T08:13:08.003Z,94952.00
2023-05-05T08:14:07.992Z,94950.00
2023-05-05T08:15:08.493Z,94948.00
2023-05-05T08:16:08.023Z,94948.00
2023-05-05T08:17:08.044Z,94948.00
2023-05-05T08:18:07.969Z,94946.00
2023-05-05T08:19:17.546Z,94944.00
2023-05-05T08:20:09.038Z,94938.00
2023-05-05T08:21:07.946Z,94944.00
2023-05-05T08:22:07.977Z,94940.00
2023-05-05T08:23:07.986Z,94940.00
2023-05-05T08:24:07.919Z,94936.00
2023-05-05T08:25:08.100Z,94936.00
2023-05-05T08:26:07.903Z,94936.00
2023-05-05T08:27:07.930Z,94931.00
2023-05-05T08:28:07.947Z,94934.00
2023-05-05T08:29:07.917Z,94932.00
2023-05-05T08:30:07.879Z,94929.00
2023-05-05T08:31:08.051Z,94929.00
2023-05-05T08:32:07.848Z,94925.00
2023-05-05T08:33:07.889Z,94925.00
2023-05-05T08:34:07.868Z,94923.00
2023-05-05T08:35:08.302Z,94923.00
2023-05-05T08:36:07.873Z,94921.00
2023-05-05T08:37:07.869Z,94919.00
2023-05-05T08:38:07.889Z,94915.00
2023-05-05T08:39:08.192Z,94915.00
2023-05-05T08:40:07.823Z,94913.00
2023-05-05T08:41:07.789Z,94911.00
2023-05-05T08:42:07.824Z,94913.00
2023-05-05T08:43:07.830Z,94911.00
2023-05-05T08:44:07.978Z,94901.00
2023-05-05T08:45:08.285Z,94901.00
2023-05-05T08:46:07.836Z,94897.00
2023-05-05T08:47:07.905Z,94897.00
2023-05-05T08:48:07.792Z,94895.00
2023-05-05T08:49:07.736Z,94893.00
2023-05-05T08:50:07.747Z,94891.00
2023-05-05T08:51:07.717Z,94889.00
2023-05-05T08:52:07.730Z,94889.00
2023-05-05T08:53:07.704Z,94889.00
2023-05-05T08:54:07.761Z,94887.00
2023-05-05T08:55:07.908Z,94889.00
2023-05-05T08:56:07.810Z,94887.00
2023-05-05T08:57:07.820Z,94887.00
2023-05-05T08:58:07.754Z,94887.00
2023-05-05T08:59:07.755Z,94884.00
2023-05-05T09:00:07.839Z,94886.00
2023-05-05T09:01:07.853Z,94882.00
2023-05-05T09:02:08.016Z,94882.00
2023-05-05T09:03:08.074Z,94882.00
2023-05-05T09:04:07.900Z,94884.00
2023-05-05T09:05:08.108Z,94882.00
2023-05-05T09:06:07.873Z,94878.00
2023-05-05T09:07:08.021Z,94878.00
2023-05-05T09:08:07.947Z,94878.00
2023-05-05T09:09:07.952Z,94878.00
2023-05-05T09:10:07.942Z,94874.00
2023-05-05T09:11:08.594Z,94874.00
2023-05-05T09:12:07.973Z,94874.00
2023-05-05T09:13:08.064Z,94870.00
2023-05-05T09:14:08.033Z,94872.00
2023-05-05T09:15:08.241Z,94868.00
2023-05-05T09:16:08.040Z,94870.00
2023-05-05T09:17:08.195Z,94864.00
2023-05-05T09:18:08.217Z,94862.00
2023-05-05T09:19:08.594Z,94866.00
2023-05-05T09:20:08.071Z,94860.00
2023-05-05T09:21:08.082Z,94860.00
2023-05-05T09:22:08.193Z,94860.00
2023-05-05T09:23:08.180Z,94860.00
2023-05-05T09:24:09.255Z,94858.00
2023-05-05T09:25:08.436Z,94856.00
2023-05-05T09:26:08.171Z,94854.00
2023-05-05T09:27:08.229Z,94856.00
2023-05-05T09:28:08.245Z,94856.00
2023-05-05T09:29:08.220Z,94850.00
2023-05-05T09:30:08.502Z,94848.00
2023-05-05T09:31:08.418Z,94848.00
2023-05-05T09:32:08.501Z,94850.00
2023-05-05T09:33:08.321Z,94848.00
2023-05-05T09:34:08.310Z,94850.00
2023-05-05T09:35:08.436Z,94848.00
2023-05-05T09:36:09.063Z,94846.00
2023-05-05T09:37:09.035Z,94844.00
2023-05-05T09:38:08.397Z,94840.00
2023-05-05T09:39:08.367Z,94839.00
2023-05-05T09:40:08.399Z,94840.00
2023-05-05T09:41:08.594Z,94840.00
2023-05-05T09:42:08.471Z,94839.00
2023-05-05T09:43:08.531Z,94833.00
2023-05-05T09:44:08.557Z,94833.00
2023-05-05T09:45:09.155Z,94831.00
2023-05-05T09:46:08.622Z,94831.00
2023-05-05T09:47:18.483Z,94827.00
2023-05-05T09:48:09.569Z,94825.00
2023-05-05T09:49:08.551Z,94827.00
2023-05-05T09:50:08.754Z,94823.00
2023-05-05T09:51:08.536Z,94825.00
2023-05-05T09:52:08.550Z,94821.00
2023-05-05T09:53:08.664Z,94823.00
2023-05-05T09:54:08.601Z,94821.00
2023-05-05T09:55:08.489Z,94817.00
2023-05-05T09:56:08.500Z,94817.00
2023-05-05T09:57:08.517Z,94813.00
2023-05-05T09:58:08.665Z,94811.00
2023-05-05T09:59:08.780Z,94813.00
2023-05-05T10:00:09.713Z,94809.00
2023-05-05T10:01:09.583Z,94809.00
2023-05-05T10:02:08.677Z,94809.00
2023-05-05T10:03:08.860Z,94807.00
2023-05-05T10:04:08.954Z,94807.00
2023-05-05T10:05:09.026Z,94805.00
2023-05-05T10:06:09.047Z,94803.00
2023-05-05T10:07:09.090Z,94803.00
2023-05-05T10:08:09.016Z,94805.00
2023-05-05T10:09:09.162Z,94799.00
2023-05-05T10:10:09.441Z,94799.00
2023-05-05T10:11:09.332Z,94797.00
2023-05-05T10:12:09.423Z,94795.00
2023-05-05T10:13:09.483Z,94793.00
2023-05-05T10:14:09.462Z,94793.00
2023-05-05T10:15:09.540Z,94792.00
2023-05-05T10:16:09.610Z,94795.00
2023-05-05T10:17:09.556Z,94792.00
2023-05-05T10:18:09.813Z,94792.00
2023-05-05T10:19:09.762Z,94790.00
2023-05-05T10:20:09.884Z,94790.00
2023-05-05T10:21:09.808Z,94786.00
2023-05-05T10:22:09.992Z,94786.00
2023-05-05T10:23:09.941Z,94784.00
2023-05-05T10:24:10.203Z,94786.00
2023-05-05T10:25:10.015Z,94782.00
2023-05-05T10:26:10.103Z,94782.00
2023-05-05T10:27:11.564Z,94782.00
2023-05-05T10:28:10.602Z,94782.00
2023-05-05T10:29:10.292Z,94776.00
2023-05-05T10:30:10.534Z,94772.00
2023-05-05T10:31:24.501Z,94772.00
2023-05-05T10:32:30.211Z,94770.00
2023-05-05T10:33:30.147Z,94768.00
2023-05-05T10:34:11.457Z,94766.00
2023-05-05T10:35:10.528Z,94764.00
2023-05-05T10:36:10.398Z,94762.00
2023-05-05T10:37:10.390Z,94758.00
2023-05-05T10:38:10.405Z,94762.00
2023-05-05T10:39:10.325Z,94754.00
2023-05-05T10:40:10.765Z,94752.00
2023-05-05T10:41:10.316Z,94750.00
2023-05-05T10:42:10.306Z,94746.00
2023-05-05T10:43:10.514Z,94746.00
2023-05-05T10:44:10.308Z,94746.00
2023-05-05T10:45:10.547Z,94743.00
2023-05-05T10:46:10.394Z,94743.00
2023-05-05T10:47:10.302Z,94743.00
2023-05-05T10:48:10.363Z,94739.00
2023-05-05T10:49:11.758Z,94739.00
2023-05-05T10:50:10.680Z,94739.00
2023-05-05T10:51:10.246Z,94737.00
2023-05-05T10:52:10.342Z,94735.00
2023-05-05T10:53:10.248Z,94735.00
2023-05-05T10:54:10.383Z,94731.00
2023-05-05T10:55:10.243Z,94729.00
2023-05-05T10:56:10.207Z,94725.00
2023-05-05T10:57:10.221Z,94725.00
2023-05-05T10:58:10.218Z,94721.00
2023-05-05T10:59:10.203Z,94721.00
2023-05-05T11:00:10.430Z,94721.00
2023-05-05T11:01:10.211Z,94717.00
2023-05-05T11:02:10.217Z,94717.00
2023-05-05T11:03:10.309Z,94713.00
2023-05-05T11:04:10.211Z,94709.00
2023-05-05T11:05:10.192Z,94709.00
2023-05-05T11:06:10.241Z,94709.00
2023-05-05T11:07:13.813Z,94707.00
2023-05-05T11:08:10.198Z,94705.00
2023-05-05T11:09:10.194Z,94701.00
2023-05-05T11:10:10.392Z,94698.00
2023-05-05T11:11:10.203Z,94696.00
2023-05-05T11:12:10.144Z,94692.00
2023-05-05T11:13:10.215Z,94692.00
2023-05-05T11:14:10.316Z,94690.00
2023-05-05T11:15:10.103Z,94690.00
2023-05-05T11:16:10.150Z,94682.00
2023-05-05T11:17:10.128Z,94682.00
2023-05-05T11:18:10.106Z,94680.00
2023-05-05T11:19:10.083Z,94678.00
2023-05-05T11:20:10.284Z,94676.00
2023-05-05T11:21:10.176Z,94670.00
2023-05-05T11:22:10.247Z,94668.00
2023-05-05T11:23:10.304Z,94668.00
2023-05-05T11:24:10.364Z,94662.00
2023-05-05T11:25:10.390Z,94662.00
2023-05-05T11:26:10.559Z,94660.00
2023-05-05T11:27:10.527Z,94658.00
2023-05-05T11:28:10.609Z,94660.00
2023-05-05T11:29:10.632Z,94656.00
2023-05-05T11:30:10.876Z,94654.00
2023-05-05T11:31:10.822Z,94645.00
2023-05-05T11:32:10.820Z,94654.00
2023-05-05T11:33:10.865Z,94652.00
2023-05-05T11:34:10.879Z,94641.00
2023-05-05T11:35:10.969Z,94643.00
2023-05-05T11:36:11.041Z,94643.00
2023-05-05T11:37:11.080Z,94641.00
2023-05-05T11:38:11.154Z,94641.00
2023-05-05T11:39:11.179Z,94633.00
2023-05-05T11:40:11.232Z,94635.00
2023-05-05T11:41:11.284Z,94629.00
2023-05-05T11:42:11.395Z,94627.00
2023-05-05T11:43:11.418Z,94625.00
2023-05-05T11:44:11.504Z,94623.00